Time;durP1;ratioP1;P1;durP2;ratioP2;P2;SDS_P1;SDS_P2;PMS_P1;PMS_P2;Temp;Humidity;BMP_temperature;BMP_pressure;BME280_temperature;BME280_humidity;BME280_pressure;Samples;Min_cycle;Max_cycle;Signal;HPM_P1;HPM_P2
2022/07/23 00:00:06;;;;;;;0.85;0.80;;;;;;;16.12;100.00;99642.89;1718112;81;21767;-55
2022/07/23 00:02:32;;;;;;;3.22;0.70;;;;;;;16.12;100.00;99644.24;1716851;81;21430;-54
2022/07/23 00:04:59;;;;;;;1.02;0.80;;;;;;;16.12;100.00;99652.88;1721100;81;21105;-52
2022/07/23 00:07:27;;;;;;;1.77;0.82;;;;;;;16.11;100.00;99649.78;1716931;81;21492;-52
2022/07/23 00:09:54;;;;;;;0.80;0.70;;;;;;;16.10;100.00;99652.11;1721110;81;21002;-53
2022/07/23 00:12:21;;;;;;;1.10;0.70;;;;;;;16.07;100.00;99656.43;1721058;81;22386;-54
2022/07/23 00:14:48;;;;;;;3.22;1.00;;;;;;;16.05;100.00;99659.25;1717540;81;21089;-52
2022/07/23 00:17:14;;;;;;;5.20;1.05;;;;;;;16.04;100.00;99657.99;1721918;81;21070;-55
2022/07/23 00:19:41;;;;;;;1.10;0.78;;;;;;;16.01;100.00;99655.49;1719207;81;21105;-55
2022/07/23 00:22:08;;;;;;;2.00;1.30;;;;;;;16.02;100.00;99658.59;1714240;81;21038;-52
2022/07/23 00:24:35;;;;;;;8.90;1.02;;;;;;;16.02;100.00;99654.03;1715208;81;21692;-56
2022/07/23 00:27:01;;;;;;;3.33;0.93;;;;;;;16.01;100.00;99653.64;1720975;81;21031;-53
2022/07/23 00:29:28;;;;;;;5.87;1.00;;;;;;;16.00;100.00;99651.91;1714201;81;21118;-52
2022/07/23 00:31:54;;;;;;;1.87;1.00;;;;;;;15.98;100.00;99655.25;1722641;81;21494;-53
2022/07/23 00:34:20;;;;;;;4.53;0.88;;;;;;;15.97;100.00;99653.50;1708717;81;21061;-54
2022/07/23 00:36:47;;;;;;;9.83;1.50;;;;;;;15.97;100.00;99652.15;1725522;81;21135;-51
2022/07/23 00:39:14;;;;;;;2.37;1.00;;;;;;;15.97;100.00;99655.34;1724690;80;21049;-54
2022/07/23 00:41:40;;;;;;;6.50;1.42;;;;;;;15.94;100.00;99655.55;1729402;80;21085;-53
2022/07/23 00:44:17;;;;;;;12.25;1.27;;;;;;;15.91;100.00;99660.70;1720432;80;21045;-53
2022/07/23 00:46:55;;;;;;;5.70;1.30;;;;;;;15.86;100.00;99654.27;1721667;80;21155;-54
2022/07/23 00:49:23;;;;;;;6.20;1.27;;;;;;;15.80;100.00;99653.36;1721214;80;23062;-55
2022/07/23 00:51:50;;;;;;;3.35;0.90;;;;;;;15.73;100.00;99659.33;1726070;80;21665;-53
2022/07/23 00:54:17;;;;;;;1.10;0.60;;;;;;;15.67;100.00;99663.33;1726576;80;20979;-52
2022/07/23 00:56:45;;;;;;;3.80;1.00;;;;;;;15.63;100.00;99668.60;1723060;80;21140;-54
2022/07/23 00:59:12;;;;;;;2.25;1.00;;;;;;;15.59;100.00;99668.42;1723693;80;21485;-55
2022/07/23 01:01:38;;;;;;;2.87;0.90;;;;;;;15.56;100.00;99664.59;1724582;80;21548;-54
2022/07/23 01:04:05;;;;;;;4.55;1.05;;;;;;;15.55;100.00;99668.27;1724082;80;21336;-53
2022/07/23 01:06:35;;;;;;;6.30;0.90;;;;;;;15.52;100.00;99664.38;1723456;80;21087;-53
2022/07/23 01:09:05;;;;;;;3.10;0.90;;;;;;;15.52;100.00;99665.73;1740327;80;21047;-53
2022/07/23 01:11:36;;;;;;;4.62;1.00;;;;;;;15.52;100.00;99668.44;1720149;80;21116;-55
2022/07/23 01:14:13;;;;;;;4.08;0.90;;;;;;;15.54;100.00;99673.80;1722324;80;21551;-53
2022/07/23 01:16:41;;;;;;;1.05;0.70;;;;;;;15.57;100.00;99673.08;1722852;80;21085;-52
2022/07/23 01:19:08;;;;;;;1.42;0.90;;;;;;;15.60;100.00;99672.00;1727129;80;21412;-53
2022/07/23 01:21:40;;;;;;;0.80;0.72;;;;;;;15.59;100.00;99665.70;1728705;80;21085;-53
2022/07/23 01:24:08;;;;;;;0.80;0.70;;;;;;;15.59;100.00;99667.06;1729235;80;21513;-55
2022/07/23 01:26:37;;;;;;;5.12;1.52;;;;;;;15.58;100.00;99679.38;1723789;80;21128;-54
2022/07/23 01:29:04;;;;;;;2.83;0.95;;;;;;;15.55;100.00;99670.98;1722510;80;21058;-53
2022/07/23 01:31:32;;;;;;;2.92;0.60;;;;;;;15.55;100.00;99670.98;1723897;80;21984;-54
2022/07/23 01:33:58;;;;;;;0.80;0.70;;;;;;;15.54;100.00;99674.67;1724798;80;22296;-53
2022/07/23 01:36:26;;;;;;;1.20;0.78;;;;;;;15.53;100.00;99675.61;1725934;80;21102;-53
2022/07/23 01:38:54;;;;;;;0.90;0.70;;;;;;;15.50;100.00;99671.74;1723497;80;21721;-53
2022/07/23 01:41:21;;;;;;;1.35;0.70;;;;;;;15.51;100.00;99673.48;1696798;80;21038;-53
2022/07/23 01:43:47;;;;;;;0.82;0.78;;;;;;;15.50;100.00;99673.09;1699481;81;21547;-53
2022/07/23 01:46:14;;;;;;;3.52;0.78;;;;;;;15.49;100.00;99674.94;1729366;80;21083;-55
2022/07/23 01:48:42;;;;;;;2.08;0.70;;;;;;;15.48;100.00;99673.72;1725451;80;20947;-54
2022/07/23 01:51:28;;;;;;;1.35;0.90;;;;;;;15.45;100.00;99681.57;1727390;80;21508;-54
2022/07/23 01:53:58;;;;;;;1.95;0.80;;;;;;;15.45;100.00;99681.57;1726746;80;21413;-53
2022/07/23 01:56:30;;;;;;;4.92;0.85;;;;;;;15.41;100.00;99682.73;1724115;80;21587;-55
2022/07/23 01:58:54;;;;;;;1.47;0.75;;;;;;;15.38;100.00;99687.05;1696151;80;21057;-52
2022/07/23 02:01:21;;;;;;;6.35;0.90;;;;;;;15.33;100.00;99682.41;1723816;80;21538;-55
2022/07/23 02:03:48;;;;;;;1.10;0.60;;;;;;;15.31;100.00;99690.28;1723673;80;21141;-55
2022/07/23 02:06:14;;;;;;;0.68;0.60;;;;;;;15.27;100.00;99687.38;1732077;80;21074;-55
2022/07/23 02:08:40;;;;;;;1.87;0.70;;;;;;;15.24;100.00;99695.72;1728455;80;21045;-55
2022/07/23 02:11:07;;;;;;;1.02;0.68;;;;;;;15.20;100.00;99697.79;1726912;80;21388;-55
2022/07/23 02:13:33;;;;;;;0.60;0.57;;;;;;;15.19;100.00;99695.17;1730429;80;21327;-54
2022/07/23 02:16:00;;;;;;;1.15;0.70;;;;;;;15.17;100.00;99697.11;1672454;80;21294;-56
2022/07/23 02:18:26;;;;;;;1.45;0.70;;;;;;;15.17;100.00;99694.41;1727215;80;20919;-55
2022/07/23 02:20:54;;;;;;;3.87;0.90;;;;;;;15.18;100.00;99696.14;1725588;80;20879;-54
2022/07/23 02:23:20;;;;;;;0.80;0.70;;;;;;;15.19;100.00;99693.34;1728117;80;20963;-54
2022/07/23 02:25:48;;;;;;;1.90;0.90;;;;;;;15.17;100.00;99693.05;1725136;80;21050;-55
2022/07/23 02:28:16;;;;;;;4.40;0.80;;;;;;;15.16;100.00;99696.24;1719294;80;21024;-54
2022/07/23 02:30:42;;;;;;;0.88;0.80;;;;;;;15.15;100.00;99694.50;1726884;80;21070;-54
2022/07/23 02:33:09;;;;;;;2.70;0.72;;;;;;;15.12;100.00;99687.47;1726189;80;21018;-54
2022/07/23 02:35:38;;;;;;;0.90;0.70;;;;;;;15.16;100.00;99690.82;1722168;80;21054;-55
2022/07/23 02:38:06;;;;;;;3.70;0.80;;;;;;;15.16;100.00;99690.82;1697952;82;21065;-54
2022/07/23 02:40:32;;;;;;;2.30;0.70;;;;;;;15.15;100.00;99691.30;1726647;80;21217;-54
2022/07/23 02:42:59;;;;;;;4.22;0.90;;;;;;;15.14;100.00;99695.50;1729946;81;21037;-54
2022/07/23 02:45:26;;;;;;;2.42;0.78;;;;;;;15.14;100.00;99694.98;1723431;80;562012;-54
2022/07/23 02:47:53;;;;;;;0.70;0.70;;;;;;;15.14;100.00;99691.44;1727136;80;21133;-55
2022/07/23 02:50:20;;;;;;;1.20;0.70;;;;;;;15.16;100.00;99698.95;1734159;80;21042;-54
2022/07/23 02:52:47;;;;;;;3.02;0.70;;;;;;;15.19;100.00;99700.11;1732350;80;21262;-55
2022/07/23 02:55:15;;;;;;;2.20;0.70;;;;;;;15.13;100.00;99698.70;1734862;80;21084;-55
2022/07/23 02:57:41;;;;;;;1.00;0.90;;;;;;;15.13;100.00;99698.70;1732894;80;21139;-55
2022/07/23 03:00:09;;;;;;;1.95;0.90;;;;;;;15.13;100.00;99704.61;1730302;80;21116;-55
2022/07/23 03:02:37;;;;;;;1.57;0.80;;;;;;;15.10;100.00;99700.25;1729729;80;21092;-54
2022/07/23 03:05:06;;;;;;;2.37;0.75;;;;;;;15.08;100.00;99711.67;1702205;82;21763;-55
2022/07/23 03:07:33;;;;;;;4.08;0.80;;;;;;;15.04;100.00;99710.16;1735856;80;21034;-55
2022/07/23 03:10:01;;;;;;;1.72;0.80;;;;;;;15.03;100.00;99712.48;1732481;80;20975;-55
2022/07/23 03:12:27;;;;;;;1.32;0.68;;;;;;;15.06;100.00;99711.38;1734396;80;21685;-54
2022/07/23 03:14:54;;;;;;;0.90;0.70;;;;;;;15.09;100.00;99708.00;1736152;80;21085;-54
2022/07/23 03:17:22;;;;;;;2.45;0.80;;;;;;;15.16;100.00;99712.51;1740385;80;21030;-54
2022/07/23 03:19:48;;;;;;;0.95;0.82;;;;;;;15.23;100.00;99716.54;1732981;80;21535;-55
2022/07/23 03:22:17;;;;;;;4.00;0.90;;;;;;;15.26;100.00;99714.12;1735492;80;21032;-55
2022/07/23 03:24:56;;;;;;;2.15;0.70;;;;;;;15.29;100.00;99720.70;1737358;80;21063;-55
2022/07/23 03:27:26;;;;;;;4.37;0.70;;;;;;;15.31;100.00;99720.12;1734638;80;21037;-54
2022/07/23 03:29:56;;;;;;;1.02;0.75;;;;;;;15.34;100.00;99722.11;1731098;80;21944;-54
2022/07/23 03:32:25;;;;;;;1.52;0.93;;;;;;;15.39;100.00;99728.11;1737549;80;21089;-54
2022/07/23 03:34:51;;;;;;;4.33;0.80;;;;;;;15.44;100.00;99727.30;1730480;80;21062;-54
2022/07/23 03:37:19;;;;;;;0.95;0.80;;;;;;;15.49;100.00;99730.55;1732366;80;21122;-54
2022/07/23 03:39:46;;;;;;;0.95;0.75;;;;;;;15.53;100.00;99727.16;1668740;83;21136;-53
2022/07/23 03:42:14;;;;;;;0.90;0.90;;;;;;;15.57;100.00;99725.98;1687561;83;21253;-55
2022/07/23 03:44:42;;;;;;;0.90;0.80;;;;;;;15.63;100.00;99727.42;1678607;83;21050;-54
2022/07/23 03:47:08;;;;;;;0.90;0.80;;;;;;;15.67;100.00;99723.02;1686663;83;21542;-54
2022/07/23 03:49:35;;;;;;;3.70;0.85;;;;;;;15.74;100.00;99722.97;1686175;83;21502;-53
2022/07/23 03:52:02;;;;;;;2.75;1.00;;;;;;;15.82;100.00;99721.94;1676817;83;21092;-55
2022/07/23 03:54:30;;;;;;;1.60;0.90;;;;;;;15.90;100.00;99722.78;1687854;82;21077;-54
2022/07/23 03:56:56;;;;;;;1.67;1.10;;;;;;;16.00;100.00;99720.27;1690110;82;21700;-54
2022/07/23 03:59:23;;;;;;;2.20;0.90;;;;;;;16.08;100.00;99718.73;1679264;83;21020;-54
2022/07/23 04:01:51;;;;;;;0.75;0.75;;;;;;;16.18;100.00;99720.31;1705669;82;21016;-54
2022/07/23 04:04:18;;;;;;;0.90;0.80;;;;;;;16.26;100.00;99724.22;1681865;83;21115;-55
2022/07/23 04:06:44;;;;;;;1.10;0.90;;;;;;;16.37;100.00;99728.88;1708085;82;21555;-55
2022/07/23 04:09:13;;;;;;;1.07;0.90;;;;;;;16.48;100.00;99724.03;1714429;82;21128;-53
2022/07/23 04:11:39;;;;;;;1.20;1.07;;;;;;;16.62;100.00;99720.70;1711238;82;21112;-55
2022/07/23 04:14:07;;;;;;;1.10;0.93;;;;;;;16.80;100.00;99718.48;1673203;83;21007;-54
2022/07/23 04:16:34;;;;;;;2.02;1.70;;;;;;;16.96;100.00;99720.44;1681886;82;21085;-55
2022/07/23 04:19:01;;;;;;;1.10;0.90;;;;;;;17.12;100.00;99713.34;1682997;82;21238;-54
2022/07/23 04:21:29;;;;;;;1.00;0.90;;;;;;;17.25;100.00;99704.64;1690277;82;21061;-54
2022/07/23 04:23:55;;;;;;;0.90;0.80;;;;;;;17.38;100.00;99707.28;1702590;82;21057;-55
2022/07/23 04:26:22;;;;;;;0.90;0.72;;;;;;;17.49;100.00;99707.81;1687062;83;21151;-54
2022/07/23 04:28:50;;;;;;;3.35;1.30;;;;;;;17.61;100.00;99715.02;1700313;82;21078;-55
2022/07/23 04:31:16;;;;;;;1.20;0.90;;;;;;;17.73;100.00;99708.17;1685384;83;21257;-54
2022/07/23 04:33:43;;;;;;;2.37;0.80;;;;;;;17.85;100.00;99707.70;1690251;83;21075;-54
2022/07/23 04:36:10;;;;;;;0.90;0.80;;;;;;;17.97;100.00;99712.66;1684307;83;21056;-55
2022/07/23 04:38:38;;;;;;;2.30;0.80;;;;;;;18.08;100.00;99708.11;1689572;83;20993;-55
2022/07/23 04:41:04;;;;;;;1.82;0.80;;;;;;;18.19;100.00;99703.17;1679609;83;21868;-55
2022/07/23 04:43:31;;;;;;;1.07;0.90;;;;;;;18.32;100.00;99703.03;1729702;80;21306;-54
2022/07/23 04:45:58;;;;;;;1.10;0.88;;;;;;;18.44;100.00;99708.37;1735558;80;21440;-55
2022/07/23 04:48:25;;;;;;;3.05;0.70;;;;;;;18.57;100.00;99710.11;1729994;80;21024;-53
2022/07/23 04:50:53;;;;;;;1.35;0.80;;;;;;;18.68;100.00;99704.16;1733306;80;21371;-55
2022/07/23 04:53:23;;;;;;;1.45;0.90;;;;;;;18.79;100.00;99709.60;1732471;80;20994;-54
2022/07/23 04:55:50;;;;;;;4.33;0.90;;;;;;;18.88;100.00;99703.88;1735540;80;21179;-58
2022/07/23 04:58:17;;;;;;;2.17;0.78;;;;;;;18.99;100.00;99704.33;1742496;80;20903;-57
2022/07/23 05:00:43;;;;;;;1.35;0.70;;;;;;;19.06;100.00;99706.91;1736250;80;20923;-54
2022/07/23 05:03:10;;;;;;;3.77;0.70;;;;;;;19.15;100.00;99711.09;1731093;80;21415;-56
2022/07/23 05:05:37;;;;;;;1.65;0.90;;;;;;;19.27;100.00;99710.56;1737405;80;20989;-54
2022/07/23 05:08:08;;;;;;;1.70;0.70;;;;;;;19.41;100.00;99718.94;1733637;80;21082;-56
2022/07/23 05:10:36;;;;;;;1.67;0.72;;;;;;;19.55;100.00;99722.77;1731218;80;20950;-55
2022/07/23 05:13:05;;;;;;;1.12;1.00;;;;;;;19.69;100.00;99718.84;1738973;80;21361;-54
2022/07/23 05:15:31;;;;;;;0.80;0.70;;;;;;;19.80;100.00;99724.25;1737056;80;21061;-55
2022/07/23 05:17:59;;;;;;;5.95;0.80;;;;;;;19.88;100.00;99714.89;1731979;80;21046;-55
2022/07/23 05:20:26;;;;;;;0.95;0.70;;;;;;;19.98;100.00;99717.19;1740688;80;21494;-56
2022/07/23 05:22:52;;;;;;;1.70;0.80;;;;;;;20.06;100.00;99718.75;1736136;80;21079;-56
2022/07/23 05:25:19;;;;;;;7.00;0.80;;;;;;;20.14;100.00;99709.38;1734347;80;21069;-55
2022/07/23 05:27:46;;;;;;;1.20;0.72;;;;;;;20.22;100.00;99708.69;1735893;80;21582;-55
2022/07/23 05:30:13;;;;;;;3.08;0.90;;;;;;;20.30;100.00;99708.88;1734989;80;21087;-57
2022/07/23 05:32:41;;;;;;;2.30;0.70;;;;;;;20.39;100.00;99706.22;1735688;80;20971;-56
2022/07/23 05:35:10;;;;;;;2.65;0.80;;;;;;;20.52;100.00;99702.37;1737415;80;21119;-54
2022/07/23 05:37:40;;;;;;;0.70;0.70;;;;;;;20.63;100.00;99702.27;1732647;80;21042;-55
2022/07/23 05:40:09;;;;;;;0.85;0.60;;;;;;;20.73;100.00;99710.02;1734426;80;21137;-54
2022/07/23 05:42:36;;;;;;;1.98;0.60;;;;;;;20.83;100.00;99708.68;1728819;80;21017;-53
2022/07/23 05:45:05;;;;;;;2.95;0.60;;;;;;;20.92;100.00;99703.23;1737109;80;21139;-54
2022/07/23 05:47:43;;;;;;;1.90;0.60;;;;;;;21.01;100.00;99704.27;1732995;80;21432;-55
2022/07/23 05:50:11;;;;;;;0.88;0.70;;;;;;;21.07;100.00;99712.77;1732337;80;21050;-54
2022/07/23 05:52:39;;;;;;;2.60;0.70;;;;;;;21.15;100.00;99709.31;1737590;80;21575;-55
2022/07/23 05:55:20;;;;;;;1.15;0.70;;;;;;;21.23;100.00;99705.89;1731238;80;21089;-56
2022/07/23 05:57:46;;;;;;;1.85;0.75;;;;;;;21.31;100.00;99704.67;1733278;80;21255;-54
2022/07/23 06:00:13;;;;;;;0.85;0.55;;;;;;;21.40;100.00;99711.53;1728337;80;22027;-56
2022/07/23 06:02:40;;;;;;;8.58;0.72;;;;;;;21.51;100.00;99711.90;1730857;80;21060;-57
2022/07/23 06:05:08;;;;;;;0.50;0.50;;;;;;;21.61;100.00;99715.98;1737503;80;21089;-56
2022/07/23 06:07:36;;;;;;;0.70;0.60;;;;;;;21.69;100.00;99711.50;1733178;81;21073;-55
2022/07/23 06:10:03;;;;;;;4.67;0.40;;;;;;;21.76;100.00;99715.41;1729133;80;21928;-55
2022/07/23 06:12:31;;;;;;;0.42;0.40;;;;;;;21.86;100.00;99714.88;1729319;80;21121;-55
2022/07/23 06:15:00;;;;;;;0.30;0.30;;;;;;;21.94;100.00;99716.04;1727654;80;21512;-55
2022/07/23 06:17:27;;;;;;;0.80;0.30;;;;;;;22.00;100.00;99715.48;1695537;82;21130;-56
2022/07/23 06:19:54;;;;;;;2.30;0.40;;;;;;;22.06;100.00;99717.11;1730602;80;21092;-56
2022/07/23 06:22:20;;;;;;;0.40;0.30;;;;;;;22.11;100.00;99714.81;1735346;80;21141;-56
2022/07/23 06:24:48;;;;;;;6.45;0.40;;;;;;;22.16;100.00;99717.09;1727025;80;21097;-56
2022/07/23 06:27:15;;;;;;;1.75;0.30;;;;;;;22.22;100.00;99706.89;1730828;80;21124;-54
2022/07/23 06:29:41;;;;;;;1.45;0.30;;;;;;;22.30;100.00;99710.26;1733831;80;21023;-54
2022/07/23 06:32:08;;;;;;;0.33;0.30;;;;;;;22.35;100.00;99717.05;1733163;80;21065;-55
2022/07/23 06:34:34;;;;;;;0.98;0.30;;;;;;;22.41;100.00;99714.20;1729987;80;21828;-55
2022/07/23 06:37:01;;;;;;;2.37;0.30;;;;;;;22.46;100.00;99724.20;1730944;80;21017;-54
2022/07/23 06:39:28;;;;;;;0.20;0.20;;;;;;;22.49;100.00;99723.41;1731659;80;21096;-58
2022/07/23 06:41:55;;;;;;;0.82;0.30;;;;;;;22.56;100.00;99720.91;1730305;80;21065;-55
2022/07/23 06:44:23;;;;;;;0.75;0.30;;;;;;;22.62;100.00;99721.20;1734223;80;21453;-54
2022/07/23 06:46:50;;;;;;;0.30;0.30;;;;;;;22.68;100.00;99720.23;1695333;80;21267;-55
2022/07/23 06:49:16;;;;;;;0.30;0.30;;;;;;;22.73;100.00;99716.50;1726330;80;21058;-54
2022/07/23 06:51:43;;;;;;;0.72;0.30;;;;;;;22.76;100.00;99719.86;1725956;80;22235;-54
2022/07/23 06:54:10;;;;;;;1.27;0.25;;;;;;;22.82;100.00;99722.48;1730545;80;21018;-54
2022/07/23 06:56:36;;;;;;;1.57;0.30;;;;;;;22.86;100.00;99720.67;1731510;80;21065;-56
2022/07/23 06:59:03;;;;;;;1.85;0.30;;;;;;;22.90;100.00;99720.70;1727815;80;21237;-58
2022/07/23 07:01:29;;;;;;;0.62;0.30;;;;;;;22.95;100.00;99715.64;1666184;84;21081;-57
2022/07/23 07:03:56;;;;;;;0.62;0.20;;;;;;;23.02;100.00;99722.75;1728146;80;21590;-58
2022/07/23 07:06:24;;;;;;;2.95;0.20;;;;;;;23.08;100.00;99723.49;1725574;80;21029;-55
2022/07/23 07:08:50;;;;;;;0.50;0.30;;;;;;;23.13;100.00;99718.93;1727105;80;21038;-57
2022/07/23 07:11:16;;;;;;;0.57;0.20;;;;;;;23.17;100.00;99711.59;1726280;80;21557;-57
2022/07/23 07:13:43;;;;;;;1.00;0.20;;;;;;;23.23;100.00;99717.82;1721747;80;21061;-57
2022/07/23 07:16:09;;;;;;;2.52;0.20;;;;;;;23.29;100.00;99711.73;1719614;80;21097;-56
2022/07/23 07:18:36;;;;;;;0.40;0.20;;;;;;;23.36;100.00;99711.45;1724950;80;21098;-57
2022/07/23 07:21:04;;;;;;;0.20;0.20;;;;;;;23.43;100.00;99719.06;1722983;80;21302;-57
2022/07/23 07:23:32;;;;;;;1.47;0.25;;;;;;;23.46;100.00;99714.64;1724951;80;21140;-55
2022/07/23 07:26:17;;;;;;;1.57;0.30;;;;;;;23.52;100.00;99713.52;1722513;80;21970;-56
2022/07/23 07:28:44;;;;;;;1.30;0.20;;;;;;;23.59;100.00;99720.11;1720251;80;21018;-57
2022/07/23 07:31:10;;;;;;;0.30;0.20;;;;;;;23.66;100.00;99716.22;1727037;80;21038;-56
2022/07/23 07:33:36;;;;;;;0.45;0.30;;;;;;;23.69;100.00;99712.66;1724702;80;21038;-56
2022/07/23 07:36:04;;;;;;;1.17;0.30;;;;;;;23.75;100.00;99716.12;1724705;80;21679;-56
2022/07/23 07:38:31;;;;;;;2.83;0.33;;;;;;;23.76;100.00;99708.24;1722961;80;20903;-57
2022/07/23 07:40:57;;;;;;;0.20;0.20;;;;;;;23.76;100.00;99710.13;1732458;80;20935;-57
2022/07/23 07:43:24;;;;;;;3.02;0.33;;;;;;;23.77;100.00;99711.86;1730151;80;20880;-57
2022/07/23 07:45:50;;;;;;;0.42;0.30;;;;;;;23.82;100.00;99709.48;1735844;80;20923;-57
2022/07/23 07:48:16;;;;;;;0.30;0.30;;;;;;;23.85;100.00;99707.80;1729888;80;21312;-56
2022/07/23 07:50:43;;;;;;;1.72;0.40;;;;;;;23.89;100.00;99708.36;1721380;80;20995;-57
2022/07/23 07:53:09;;;;;;;0.60;0.30;;;;;;;23.92;100.00;99722.62;1729674;80;20903;-57
2022/07/23 07:55:36;;;;;;;14.13;0.40;;;;;;;23.92;100.00;99714.38;1730055;80;20889;-57
2022/07/23 07:58:02;;;;;;;0.40;0.20;;;;;;;23.98;100.00;99707.40;1724055;80;21106;-57
2022/07/23 08:00:30;;;;;;;2.40;0.20;;;;;;;24.07;100.00;99720.19;1726059;80;21205;-56
2022/07/23 08:02:56;;;;;;;0.47;0.30;;;;;;;24.19;100.00;99720.77;1724661;80;21361;-56
2022/07/23 08:05:28;;;;;;;0.68;0.30;;;;;;;24.27;100.00;99714.84;1729991;80;20891;-56
2022/07/23 08:07:56;;;;;;;1.67;0.30;;;;;;;24.37;100.00;99719.72;1733601;80;21397;-56
2022/07/23 08:10:24;;;;;;;0.50;0.30;;;;;;;24.43;100.00;99714.94;1725926;80;20962;-57
2022/07/23 08:12:53;;;;;;;0.30;0.20;;;;;;;24.48;100.00;99721.34;1719167;80;21048;-56
2022/07/23 08:15:20;;;;;;;1.20;0.40;;;;;;;24.54;100.00;99719.30;1726915;80;20972;-57
2022/07/23 08:17:48;;;;;;;0.50;0.20;;;;;;;24.61;100.00;99715.38;1726243;80;21003;-57
2022/07/23 08:20:17;;;;;;;2.27;0.30;;;;;;;24.63;100.00;99713.33;1724377;80;20960;-57
2022/07/23 08:22:54;;;;;;;0.65;0.30;;;;;;;24.64;100.00;99715.92;1728692;80;20919;-56
2022/07/23 08:25:24;;;;;;;4.28;0.30;;;;;;;24.69;100.00;99712.14;1728777;80;21201;-56
2022/07/23 08:27:51;;;;;;;0.80;0.20;;;;;;;24.75;100.00;99712.85;1718674;80;21113;-57
2022/07/23 08:30:18;;;;;;;3.58;0.20;;;;;;;24.82;100.00;99717.20;1727530;80;21477;-57
2022/07/23 08:33:00;;;;;;;0.25;0.20;;;;;;;24.85;100.00;99715.48;1727480;80;21109;-56
2022/07/23 08:35:34;;;;;;;1.40;0.30;;;;;;;24.89;100.00;99710.87;1724533;80;21098;-56
2022/07/23 08:38:02;;;;;;;1.20;0.20;;;;;;;24.95;100.00;99702.48;1726298;80;21122;-56
2022/07/23 08:40:32;;;;;;;2.37;0.25;;;;;;;25.01;100.00;99705.93;1721215;80;21038;-56
2022/07/23 08:42:59;;;;;;;0.30;0.23;;;;;;;25.05;100.00;99703.72;1730058;80;21115;-57
2022/07/23 08:45:26;;;;;;;0.50;0.30;;;;;;;25.05;100.00;99697.70;1732847;80;21093;-55
2022/07/23 08:47:55;;;;;;;2.12;0.30;;;;;;;25.08;100.00;99708.91;1730505;80;21098;-56
2022/07/23 08:50:23;;;;;;;0.30;0.20;;;;;;;25.11;100.00;99697.53;1735468;80;21489;-55
2022/07/23 08:55:39;;;;;;;3.23;0.30;;;;;;;25.24;100.00;99696.55;1866689;74;23064;-56
2022/07/23 08:58:06;;;;;;;0.80;0.20;;;;;;;25.27;100.00;99704.45;1833378;75;21492;-57
2022/07/23 09:00:33;;;;;;;0.20;0.20;;;;;;;25.32;100.00;99698.45;1834684;76;21277;-57
2022/07/23 09:02:59;;;;;;;1.40;0.28;;;;;;;25.36;100.00;99693.80;1826844;76;20960;-55
2022/07/23 09:05:26;;;;;;;1.75;0.75;;;;;;;25.43;100.00;99698.14;1828065;76;20958;-56
2022/07/23 09:08:13;;;;;;;0.30;0.30;;;;;;;25.48;100.00;99701.23;1827024;76;20963;-56
2022/07/23 09:10:57;;;;;;;0.30;0.20;;;;;;;25.49;100.00;99696.94;1829440;76;21026;-56
2022/07/23 09:13:41;;;;;;;0.93;0.60;;;;;;;25.52;100.00;99688.85;1829113;76;21446;-56
2022/07/23 09:16:13;;;;;;;0.50;0.30;;;;;;;25.52;100.00;99686.09;1824656;76;21016;-55
2022/07/23 09:18:53;;;;;;;1.05;0.20;;;;;;;25.54;100.00;99687.63;1821364;77;21011;-56
2022/07/23 09:21:32;;;;;;;0.30;0.28;;;;;;;25.58;100.00;99686.27;1829460;76;21307;-55
2022/07/23 09:24:11;;;;;;;1.98;0.28;;;;;;;25.61;100.00;99679.56;1825520;76;20992;-55
2022/07/23 09:26:44;;;;;;;0.20;0.20;;;;;;;25.63;100.00;99676.98;1824852;76;21832;-56
2022/07/23 09:29:20;;;;;;;2.03;0.30;;;;;;;25.63;100.00;99683.88;1826444;76;21516;-56
2022/07/23 09:32:00;;;;;;;2.25;0.20;;;;;;;25.68;100.00;99683.89;1829288;76;21456;-57
2022/07/23 09:34:38;;;;;;;0.20;0.20;;;;;;;25.76;100.00;99682.52;1822404;76;21052;-56
2022/07/23 09:37:17;;;;;;;1.60;0.20;;;;;;;25.85;100.00;99682.34;1828254;76;21512;-56
2022/07/23 09:39:45;;;;;;;1.65;0.30;;;;;;;25.95;100.00;99687.13;1760801;79;21159;-57
2022/07/23 09:42:24;;;;;;;0.70;0.20;;;;;;;26.05;100.00;99670.92;1760190;80;21041;-58
2022/07/23 09:44:54;;;;;;;0.20;0.20;;;;;;;26.07;100.00;99671.62;1793131;77;21297;-56
2022/07/23 09:47:22;;;;;;;2.47;0.20;;;;;;;26.12;100.00;99672.80;1789266;77;21087;-57
2022/07/23 09:50:08;;;;;;;4.70;0.30;;;;;;;26.16;100.00;99674.19;1787404;78;21618;-56
2022/07/23 09:52:37;;;;;;;0.50;0.30;;;;;;;26.20;100.00;99681.61;1793059;78;21130;-56
2022/07/23 09:55:06;;;;;;;0.20;0.20;;;;;;;26.23;100.00;99684.00;1758504;79;21052;-56
2022/07/23 09:57:32;;;;;;;0.30;0.20;;;;;;;26.20;100.00;99687.13;1755281;79;21073;-56
2022/07/23 10:00:01;;;;;;;0.35;0.30;;;;;;;26.16;100.00;99675.56;1748833;79;21081;-56
2022/07/23 10:02:32;;;;;;;0.88;0.30;;;;;;;26.15;100.00;99665.56;1737331;81;21033;-57
2022/07/23 10:05:01;;;;;;;0.75;0.20;;;;;;;26.21;100.00;99665.37;1751324;79;21573;-57
2022/07/23 10:07:36;;;;;;;0.88;0.30;;;;;;;26.28;100.00;99664.55;1760748;79;21083;-57
2022/07/23 10:10:22;;;;;;;0.72;0.20;;;;;;;26.35;100.00;99664.19;1766568;79;21055;-58
2022/07/23 10:13:23;;;;;;;0.78;0.30;;;;;;;26.42;100.00;99659.33;1761398;79;21055;-57
2022/07/23 10:15:40;;;;;;;0.93;0.50;;;;;;;26.46;100.00;99659.30;1757366;79;21579;-57
2022/07/23 10:18:07;;;;;;;1.02;0.40;;;;;;;26.50;100.00;99659.30;1762625;79;21165;-58
2022/07/23 10:20:35;;;;;;;1.22;0.30;;;;;;;26.49;100.00;99661.19;1768776;79;21014;-56
2022/07/23 10:23:26;;;;;;;1.07;0.25;;;;;;;26.50;100.00;99659.30;1747760;79;21423;-57
2022/07/23 10:26:01;;;;;;;0.30;0.30;;;;;;;26.50;100.00;99658.78;1749617;79;21086;-57
2022/07/23 10:28:45;;;;;;;0.55;0.37;;;;;;;26.45;100.00;99659.84;1732828;80;21049;-58
2022/07/23 10:31:25;;;;;;;;;;;;;;;26.43;100.00;99656.39;1752535;79;21446;-57
2022/07/23 10:34:15;;;;;;;0.90;0.30;;;;;;;26.49;100.00;99657.57;1747161;79;20219;-58
2022/07/23 10:36:57;;;;;;;0.70;0.30;;;;;;;26.53;100.00;99654.81;1751772;79;21432;-59
2022/07/23 10:39:28;;;;;;;0.88;0.30;;;;;;;26.56;100.00;99649.77;1748464;80;20921;-58
2022/07/23 10:42:11;;;;;;;0.40;0.30;;;;;;;26.63;100.00;99644.39;1768476;79;20929;-57
2022/07/23 10:44:47;;;;;;;1.67;0.40;;;;;;;26.73;100.00;99640.90;1758157;79;21949;-58
2022/07/23 10:49:56;;;;;;;0.20;0.20;;;;;;;26.92;100.00;99636.88;1751527;80;21406;-58
2022/07/23 10:52:24;;;;;;;0.42;0.30;;;;;;;26.96;100.00;99637.73;1715011;80;20966;-59
2022/07/23 10:55:11;;;;;;;0.72;0.30;;;;;;;26.96;100.00;99646.53;1744684;79;21260;-58
2022/07/23 10:57:49;;;;;;;0.30;0.20;;;;;;;26.91;100.00;99646.20;1780288;78;21221;-58
2022/07/23 11:00:25;;;;;;;2.70;0.40;;;;;;;26.83;100.00;99638.78;1779968;78;20949;-59
2022/07/23 11:02:59;;;;;;;0.88;0.40;;;;;;;26.78;100.00;99647.28;1781354;78;20915;-58
2022/07/23 11:05:43;;;;;;;1.05;0.30;;;;;;;26.74;100.00;99644.00;1785353;78;21381;-58
2022/07/23 11:08:14;;;;;;;3.37;0.40;;;;;;;26.69;100.00;99641.80;1767457;78;20926;-58
2022/07/23 11:10:49;;;;;;;0.37;0.30;;;;;;;26.71;100.00;99645.77;1782341;78;21188;-59
2022/07/23 11:13:28;;;;;;;;;;;;;;;26.75;100.00;99636.93;1784286;78;21509;-58
2022/07/23 11:16:18;;;;;;;0.75;0.75;;;;;;;26.85;100.00;99641.38;1779841;78;20203;-59
2022/07/23 11:18:52;;;;;;;0.50;0.28;;;;;;;26.92;100.00;99626.69;1757589;79;20938;-58
2022/07/23 11:21:28;;;;;;;0.30;0.30;;;;;;;27.03;100.00;99627.66;1778611;78;21131;-58
2022/07/23 11:24:00;;;;;;;0.70;0.30;;;;;;;27.14;100.00;99635.20;1782985;78;20949;-58
2022/07/23 11:26:53;;;;;;;2.50;0.30;;;;;;;27.19;100.00;99636.88;1775977;78;20993;-58
2022/07/23 11:29:32;;;;;;;0.95;0.30;;;;;;;27.24;100.00;99637.18;1778510;78;21127;-58
2022/07/23 11:32:04;;;;;;;0.75;0.30;;;;;;;27.25;100.00;99637.52;1784243;78;21072;-56
2022/07/23 11:34:50;;;;;;;0.30;0.30;;;;;;;27.25;100.00;99623.19;1778443;78;21099;-58
2022/07/23 11:37:37;;;;;;;0.55;0.30;;;;;;;27.22;100.00;99634.59;1780399;78;21252;-58
2022/07/23 11:40:08;;;;;;;0.45;0.30;;;;;;;27.16;100.00;99629.81;1778854;78;21037;-58
2022/07/23 11:42:36;;;;;;;1.37;0.30;;;;;;;27.10;100.00;99629.17;1783299;78;21056;-58